Chester, Connecticut
Current Conditions -  °F | °C
As of 5:55 AM on Saturday 01 Nov 2014 (Local Time) from KSNC Reporting Station
Few Clouds Few Clouds  
Wind Chill:   Ceiling: Unl
Heat Index:   Visibility: 10mi
Dew Point:   Wind: 10mph
Humidity: 61%   Direction: 30°NNE
Pressure: 29.86"   Gusts: 17mph
Location:  41.4°N, 72.45°W
Report Text: KSNC 010955Z AUTO 03009G15KT 10SM FEW080 07/00 A2986 RMK AO2
Loading
Personal Weather Stations






























Interactive Weather Map
Tropical Storm Tracking
New forecast layout! Learn more

10-Day Weather Forecast

Advertisements
Track Severe Weather on mobile